sensor_id;sensor_type;location;lat;lon;timestamp;pressure;altitude;pressure_sealevel;temperature;humidity
53647;BME280;39550;52.230;5.194;2023-03-25T00:01:20;99931.66;;;9.57;81.68
53647;BME280;39550;52.230;5.194;2023-03-25T00:03:50;99938.53;;;9.54;81.27
53647;BME280;39550;52.230;5.194;2023-03-25T00:06:17;99933.41;;;9.54;81.57
53647;BME280;39550;52.230;5.194;2023-03-25T00:08:43;99930.84;;;9.51;81.60
53647;BME280;39550;52.230;5.194;2023-03-25T00:11:08;99933.41;;;9.51;82.03
53647;BME280;39550;52.230;5.194;2023-03-25T00:13:34;99943.69;;;9.51;81.41
53647;BME280;39550;52.230;5.194;2023-03-25T00:16:01;99937.69;;;9.51;81.80
53647;BME280;39550;52.230;5.194;2023-03-25T00:18:28;99935.13;;;9.49;81.98
53647;BME280;39550;52.230;5.194;2023-03-25T00:20:58;99933.41;;;9.48;81.67
53647;BME280;39550;52.230;5.194;2023-03-25T00:23:25;99938.53;;;9.47;82.13
53647;BME280;39550;52.230;5.194;2023-03-25T00:25:51;99929.16;;;9.46;81.72
53647;BME280;39550;52.230;5.194;2023-03-25T00:28:17;99934.28;;;9.44;81.97
53647;BME280;39550;52.230;5.194;2023-03-25T00:30:43;99931.72;;;9.47;82.15
53647;BME280;39550;52.230;5.194;2023-03-25T00:33:10;99935.13;;;9.46;81.91
53647;BME280;39550;52.230;5.194;2023-03-25T00:35:36;99932.56;;;9.45;82.34
53647;BME280;39550;52.230;5.194;2023-03-25T00:38:02;99926.56;;;9.44;82.52
53647;BME280;39550;52.230;5.194;2023-03-25T00:40:31;99943.69;;;9.45;82.27
53647;BME280;39550;52.230;5.194;2023-03-25T00:43:01;99930.00;;;9.43;82.08
53647;BME280;39550;52.230;5.194;2023-03-25T00:45:28;99941.13;;;9.44;82.02
53647;BME280;39550;52.230;5.194;2023-03-25T00:47:53;99933.41;;;9.42;82.35
53647;BME280;39550;52.230;5.194;2023-03-25T00:50:19;99942.84;;;9.43;82.21
53647;BME280;39550;52.230;5.194;2023-03-25T00:52:49;99923.13;;;9.42;82.12
53647;BME280;39550;52.230;5.194;2023-03-25T00:55:14;99932.56;;;9.42;82.04
53647;BME280;39550;52.230;5.194;2023-03-25T00:57:40;99924.88;;;9.40;82.06
53647;BME280;39550;52.230;5.194;2023-03-25T01:00:16;99924.00;;;9.41;82.37
53647;BME280;39550;52.230;5.194;2023-03-25T01:02:42;99928.28;;;9.39;81.70
53647;BME280;39550;52.230;5.194;2023-03-25T01:05:09;99933.44;;;9.39;81.88
53647;BME280;39550;52.230;5.194;2023-03-25T01:07:36;99919.72;;;9.35;81.68
53647;BME280;39550;52.230;5.194;2023-03-25T01:10:03;99926.56;;;9.38;82.05
53647;BME280;39550;52.230;5.194;2023-03-25T01:12:28;99924.84;;;9.37;82.04
53647;BME280;39550;52.230;5.194;2023-03-25T01:14:54;99923.16;;;9.36;81.92
53647;BME280;39550;52.230;5.194;2023-03-25T01:17:19;99918.84;;;9.30;81.53
53647;BME280;39550;52.230;5.194;2023-03-25T01:19:45;99909.44;;;9.37;82.06
53647;BME280;39550;52.230;5.194;2023-03-25T01:22:11;99912.88;;;9.30;82.24
53647;BME280;39550;52.230;5.194;2023-03-25T01:24:37;99926.59;;;9.35;81.67
53647;BME280;39550;52.230;5.194;2023-03-25T01:27:03;99922.31;;;9.32;81.91
53647;BME280;39550;52.230;5.194;2023-03-25T01:29:28;99918.88;;;9.33;81.98
53647;BME280;39550;52.230;5.194;2023-03-25T01:31:54;99928.28;;;9.33;81.88
53647;BME280;39550;52.230;5.194;2023-03-25T01:34:19;99923.16;;;9.33;81.75
53647;BME280;39550;52.230;5.194;2023-03-25T01:36:45;99924.03;;;9.32;81.90
53647;BME280;39550;52.230;5.194;2023-03-25T01:39:11;99910.31;;;9.30;82.06
53647;BME280;39550;52.230;5.194;2023-03-25T01:41:37;99929.16;;;9.30;82.01
53647;BME280;39550;52.230;5.194;2023-03-25T01:46:56;99909.47;;;9.29;81.84
53647;BME280;39550;52.230;5.194;2023-03-25T01:49:35;99919.72;;;9.26;82.26
53647;BME280;39550;52.230;5.194;2023-03-25T01:52:17;99919.72;;;9.25;82.49
53647;BME280;39550;52.230;5.194;2023-03-25T01:54:46;99919.72;;;9.25;82.21
53647;BME280;39550;52.230;5.194;2023-03-25T01:57:17;99921.44;;;9.26;82.35
53647;BME280;39550;52.230;5.194;2023-03-25T01:59:43;99924.88;;;9.25;82.63
53647;BME280;39550;52.230;5.194;2023-03-25T02:02:09;99922.31;;;9.23;82.68
53647;BME280;39550;52.230;5.194;2023-03-25T02:04:50;99919.72;;;9.25;82.05
53647;BME280;39550;52.230;5.194;2023-03-25T02:07:23;99921.47;;;9.19;82.28
53647;BME280;39550;52.230;5.194;2023-03-25T02:09:54;99913.75;;;9.23;82.60
53647;BME280;39550;52.230;5.194;2023-03-25T02:12:20;99908.59;;;9.24;82.72
53647;BME280;39550;52.230;5.194;2023-03-25T02:14:45;99911.19;;;9.23;82.90
53647;BME280;39550;52.230;5.194;2023-03-25T02:22:54;99906.06;;;9.19;82.70
53647;BME280;39550;52.230;5.194;2023-03-25T02:31:36;99909.47;;;9.18;83.30
53647;BME280;39550;52.230;5.194;2023-03-25T02:34:22;99902.63;;;9.17;83.01
53647;BME280;39550;52.230;5.194;2023-03-25T02:37:41;99911.19;;;9.23;82.54
53647;BME280;39550;52.230;5.194;2023-03-25T02:40:18;99905.16;;;9.20;82.95
53647;BME280;39550;52.230;5.194;2023-03-25T02:42:51;99899.19;;;9.15;82.77
53647;BME280;39550;52.230;5.194;2023-03-25T02:47:49;99907.75;;;9.17;83.04
53647;BME280;39550;52.230;5.194;2023-03-25T02:50:22;99903.47;;;9.15;83.15
53647;BME280;39550;52.230;5.194;2023-03-25T02:52:52;99902.63;;;9.17;83.21
53647;BME280;39550;52.230;5.194;2023-03-25T02:55:21;99897.47;;;9.17;83.25
53647;BME280;39550;52.230;5.194;2023-03-25T02:57:49;99899.19;;;9.15;83.16
53647;BME280;39550;52.230;5.194;2023-03-25T03:00:20;99894.06;;;9.15;83.15
53647;BME280;39550;52.230;5.194;2023-03-25T03:02:56;99881.22;;;9.15;83.45
53647;BME280;39550;52.230;5.194;2023-03-25T03:10:39;99866.63;;;9.08;83.08
53647;BME280;39550;52.230;5.194;2023-03-25T03:16:15;99882.06;;;9.11;83.22
53647;BME280;39550;52.230;5.194;2023-03-25T03:18:49;99877.78;;;9.10;83.57
53647;BME280;39550;52.230;5.194;2023-03-25T03:21:27;99876.06;;;9.09;83.63
53647;BME280;39550;52.230;5.194;2023-03-25T03:24:04;99864.94;;;9.06;83.76
53647;BME280;39550;52.230;5.194;2023-03-25T03:29:28;99877.78;;;9.10;83.74
53647;BME280;39550;52.230;5.194;2023-03-25T03:32:06;99876.91;;;9.08;83.68
53647;BME280;39550;52.230;5.194;2023-03-25T03:34:54;99874.34;;;9.07;83.78
53647;BME280;39550;52.230;5.194;2023-03-25T03:37:32;99868.38;;;9.06;83.69
53647;BME280;39550;52.230;5.194;2023-03-25T03:40:02;99865.78;;;9.06;83.99
53647;BME280;39550;52.230;5.194;2023-03-25T03:42:59;99859.81;;;9.07;83.33
53647;BME280;39550;52.230;5.194;2023-03-25T03:45:28;99864.06;;;9.07;83.64
53647;BME280;39550;52.230;5.194;2023-03-25T03:47:56;99862.38;;;9.02;83.68
53647;BME280;39550;52.230;5.194;2023-03-25T03:50:27;99868.38;;;9.03;84.16
53647;BME280;39550;52.230;5.194;2023-03-25T03:53:07;99866.66;;;9.02;83.80
53647;BME280;39550;52.230;5.194;2023-03-25T03:55:40;99858.97;;;8.99;83.73
53647;BME280;39550;52.230;5.194;2023-03-25T03:58:15;99858.09;;;9.03;83.49
53647;BME280;39550;52.230;5.194;2023-03-25T04:01:02;99856.38;;;9.02;83.80
53647;BME280;39550;52.230;5.194;2023-03-25T04:03:42;99878.66;;;9.03;83.89
53647;BME280;39550;52.230;5.194;2023-03-25T04:06:23;99869.22;;;9.00;84.00
53647;BME280;39550;52.230;5.194;2023-03-25T04:08:52;99877.78;;;8.99;83.73
53647;BME280;39550;52.230;5.194;2023-03-25T04:11:29;99878.66;;;8.97;84.27
53647;BME280;39550;52.230;5.194;2023-03-25T04:13:58;99870.13;;;8.92;83.67
53647;BME280;39550;52.230;5.194;2023-03-25T04:16:25;99886.38;;;8.95;84.12
53647;BME280;39550;52.230;5.194;2023-03-25T04:18:50;99873.50;;;8.97;84.11
53647;BME280;39550;52.230;5.194;2023-03-25T04:21:19;99867.53;;;8.96;83.60
53647;BME280;39550;52.230;5.194;2023-03-25T04:23:44;99870.09;;;8.95;84.05
53647;BME280;39550;52.230;5.194;2023-03-25T04:26:11;99873.50;;;8.97;84.05
53647;BME280;39550;52.230;5.194;2023-03-25T04:28:37;99870.94;;;8.95;83.95
53647;BME280;39550;52.230;5.194;2023-03-25T04:31:13;99861.53;;;8.96;84.18
53647;BME280;39550;52.230;5.194;2023-03-25T04:33:41;99866.69;;;8.96;84.28
53647;BME280;39550;52.230;5.194;2023-03-25T04:36:10;99861.53;;;8.96;83.84
53647;BME280;39550;52.230;5.194;2023-03-25T04:38:35;99872.66;;;8.95;83.91
53647;BME280;39550;52.230;5.194;2023-03-25T04:41:01;99880.38;;;8.95;84.43
53647;BME280;39550;52.230;5.194;2023-03-25T04:43:31;99870.94;;;8.94;83.96
53647;BME280;39550;52.230;5.194;2023-03-25T04:45:57;99882.09;;;8.96;83.81
53647;BME280;39550;52.230;5.194;2023-03-25T04:48:29;99876.94;;;8.93;84.44
53647;BME280;39550;52.230;5.194;2023-03-25T04:50:58;99875.22;;;8.89;84.39
53647;BME280;39550;52.230;5.194;2023-03-25T04:53:28;99879.50;;;8.91;84.47
53647;BME280;39550;52.230;5.194;2023-03-25T04:55:54;99878.66;;;8.91;84.55
53647;BME280;39550;52.230;5.194;2023-03-25T04:58:20;99885.53;;;8.92;84.53
53647;BME280;39550;52.230;5.194;2023-03-25T05:00:48;99882.09;;;8.91;83.94
53647;BME280;39550;52.230;5.194;2023-03-25T05:03:15;99883.81;;;8.91;84.21
53647;BME280;39550;52.230;5.194;2023-03-25T05:05:40;99882.94;;;8.90;83.99
53647;BME280;39550;52.230;5.194;2023-03-25T05:08:06;99877.81;;;8.89;84.58
53647;BME280;39550;52.230;5.194;2023-03-25T05:10:32;99882.09;;;8.90;84.40
53647;BME280;39550;52.230;5.194;2023-03-25T05:13:00;99867.53;;;8.89;84.30
53647;BME280;39550;52.230;5.194;2023-03-25T05:15:27;99871.84;;;8.83;84.19
53647;BME280;39550;52.230;5.194;2023-03-25T05:17:52;99877.81;;;8.85;84.84
53647;BME280;39550;52.230;5.194;2023-03-25T05:20:18;99880.38;;;8.89;84.60
53647;BME280;39550;52.230;5.194;2023-03-25T05:22:43;99882.94;;;8.87;84.32
53647;BME280;39550;52.230;5.194;2023-03-25T05:25:10;99882.94;;;8.85;84.41
53647;BME280;39550;52.230;5.194;2023-03-25T05:37:49;99907.78;;;8.83;84.43
53647;BME280;39550;52.230;5.194;2023-03-25T05:40:15;99906.09;;;8.79;84.18
53647;BME280;39550;52.230;5.194;2023-03-25T05:42:41;99893.22;;;8.81;84.44
53647;BME280;39550;52.230;5.194;2023-03-25T05:45:11;99906.09;;;8.79;84.70
53647;BME280;39550;52.230;5.194;2023-03-25T05:47:36;99908.66;;;8.79;84.24
53647;BME280;39550;52.230;5.194;2023-03-25T05:50:01;99902.63;;;8.77;84.31
53647;BME280;39550;52.230;5.194;2023-03-25T05:52:27;99912.06;;;8.78;84.39
53647;BME280;39550;52.230;5.194;2023-03-25T05:54:52;99912.91;;;8.77;84.44
53647;BME280;39550;52.230;5.194;2023-03-25T05:57:17;99915.47;;;8.77;83.90
53647;BME280;39550;52.230;5.194;2023-03-25T05:59:43;99905.22;;;8.69;83.90
53647;BME280;39550;52.230;5.194;2023-03-25T06:02:12;99915.47;;;8.77;84.35
53647;BME280;39550;52.230;5.194;2023-03-25T06:04:38;99921.50;;;8.79;83.78
53647;BME280;39550;52.230;5.194;2023-03-25T06:07:06;99924.06;;;8.79;84.16
53647;BME280;39550;52.230;5.194;2023-03-25T06:09:47;99922.34;;;8.78;84.14
53647;BME280;39550;52.230;5.194;2023-03-25T06:12:17;99915.47;;;8.79;84.20
53647;BME280;39550;52.230;5.194;2023-03-25T06:14:44;99916.34;;;8.81;84.02
53647;BME280;39550;52.230;5.194;2023-03-25T06:17:14;99922.34;;;8.78;83.67
53647;BME280;39550;52.230;5.194;2023-03-25T06:19:40;99923.19;;;8.77;83.92
53647;BME280;39550;52.230;5.194;2023-03-25T06:22:07;99918.06;;;8.77;83.85
53647;BME280;39550;52.230;5.194;2023-03-25T06:24:37;99926.63;;;8.75;83.78
53647;BME280;39550;52.230;5.194;2023-03-25T06:27:15;99926.63;;;8.73;83.86
53647;BME280;39550;52.230;5.194;2023-03-25T06:29:43;99929.19;;;8.73;83.55
53647;BME280;39550;52.230;5.194;2023-03-25T06:32:11;99930.03;;;8.72;84.40
53647;BME280;39550;52.230;5.194;2023-03-25T06:34:37;99938.63;;;8.71;83.76
53647;BME280;39550;52.230;5.194;2023-03-25T06:37:04;99930.03;;;8.69;84.01
53647;BME280;39550;52.230;5.194;2023-03-25T06:39:30;99924.91;;;8.63;84.10
53647;BME280;39550;52.230;5.194;2023-03-25T06:41:59;99938.59;;;8.68;84.10
53647;BME280;39550;52.230;5.194;2023-03-25T06:44:26;99942.03;;;8.68;84.35
53647;BME280;39550;52.230;5.194;2023-03-25T06:46:52;99944.59;;;8.68;84.03
53647;BME280;39550;52.230;5.194;2023-03-25T06:49:17;99930.91;;;8.71;84.19
53647;BME280;39550;52.230;5.194;2023-03-25T06:51:43;99930.03;;;8.63;84.28
53647;BME280;39550;52.230;5.194;2023-03-25T06:54:08;99935.16;;;8.69;84.01
53647;BME280;39550;52.230;5.194;2023-03-25T06:56:34;99926.59;;;8.61;84.26
53647;BME280;39550;52.230;5.194;2023-03-25T06:58:59;99936.91;;;8.70;84.06
53647;BME280;39550;52.230;5.194;2023-03-25T07:01:25;99937.75;;;8.67;83.99
53647;BME280;39550;52.230;5.194;2023-03-25T07:03:50;99937.75;;;8.66;84.19
53647;BME280;39550;52.230;5.194;2023-03-25T07:06:19;99931.75;;;8.65;84.06
53647;BME280;39550;52.230;5.194;2023-03-25T07:08:45;99950.59;;;8.66;84.56
53647;BME280;39550;52.230;5.194;2023-03-25T07:11:11;99941.16;;;8.65;84.33
53647;BME280;39550;52.230;5.194;2023-03-25T07:13:38;99952.31;;;8.65;84.85
53647;BME280;39550;52.230;5.194;2023-03-25T07:16:03;99942.88;;;8.66;84.21
53647;BME280;39550;52.230;5.194;2023-03-25T07:18:29;99944.59;;;8.67;84.39
53647;BME280;39550;52.230;5.194;2023-03-25T07:20:54;99944.59;;;8.67;84.46
53647;BME280;39550;52.230;5.194;2023-03-25T07:23:20;99950.59;;;8.66;83.98
53647;BME280;39550;52.230;5.194;2023-03-25T07:25:45;99944.59;;;8.65;84.02
53647;BME280;39550;52.230;5.194;2023-03-25T07:28:11;99946.28;;;8.66;84.35
53647;BME280;39550;52.230;5.194;2023-03-25T07:30:36;99948.88;;;8.69;84.33
53647;BME280;39550;52.230;5.194;2023-03-25T07:33:02;99948.88;;;8.71;83.94
53647;BME280;39550;52.230;5.194;2023-03-25T07:35:27;99960.84;;;8.72;83.94
53647;BME280;39550;52.230;5.194;2023-03-25T07:37:53;99942.03;;;8.67;84.11
53647;BME280;39550;52.230;5.194;2023-03-25T07:40:18;99952.31;;;8.70;84.15
53647;BME280;39550;52.230;5.194;2023-03-25T07:42:44;99956.59;;;8.69;83.88
53647;BME280;39550;52.230;5.194;2023-03-25T07:45:10;99948.88;;;8.68;83.32
53647;BME280;39550;52.230;5.194;2023-03-25T07:47:35;99951.44;;;8.66;83.58
53647;BME280;39550;52.230;5.194;2023-03-25T07:50:01;99951.44;;;8.66;83.66
53647;BME280;39550;52.230;5.194;2023-03-25T07:52:27;99948.88;;;8.66;83.76
53647;BME280;39550;52.230;5.194;2023-03-25T07:54:52;99954.00;;;8.68;83.99
53647;BME280;39550;52.230;5.194;2023-03-25T07:57:18;99969.41;;;8.65;84.06
53647;BME280;39550;52.230;5.194;2023-03-25T07:59:43;99957.44;;;8.65;83.67
53647;BME280;39550;52.230;5.194;2023-03-25T08:02:12;99964.28;;;8.66;84.07
53647;BME280;39550;52.230;5.194;2023-03-25T08:04:37;99965.16;;;8.65;83.63
53647;BME280;39550;52.230;5.194;2023-03-25T08:07:03;99957.44;;;8.67;84.03
53647;BME280;39550;52.230;5.194;2023-03-25T08:09:28;99971.97;;;8.66;83.46
53647;BME280;39550;52.230;5.194;2023-03-25T08:11:54;99976.28;;;8.69;83.35
53647;BME280;39550;52.230;5.194;2023-03-25T08:14:19;99971.97;;;8.66;83.24
53647;BME280;39550;52.230;5.194;2023-03-25T08:16:45;99979.69;;;8.65;83.41
53647;BME280;39550;52.230;5.194;2023-03-25T08:19:10;99983.09;;;8.62;83.93
53647;BME280;39550;52.230;5.194;2023-03-25T08:21:36;99983.09;;;8.61;83.53
53647;BME280;39550;52.230;5.194;2023-03-25T08:24:02;99983.09;;;8.61;83.90
53647;BME280;39550;52.230;5.194;2023-03-25T08:26:29;99994.25;;;8.63;83.32
53647;BME280;39550;52.230;5.194;2023-03-25T08:28:56;99984.81;;;8.62;83.84
53647;BME280;39550;52.230;5.194;2023-03-25T08:31:29;99992.53;;;8.65;83.64
53647;BME280;39550;52.230;5.194;2023-03-25T08:33:59;99980.53;;;8.64;83.31
53647;BME280;39550;52.230;5.194;2023-03-25T08:36:24;99988.22;;;8.64;83.97
53647;BME280;39550;52.230;5.194;2023-03-25T08:38:50;99974.56;;;8.62;83.61
53647;BME280;39550;52.230;5.194;2023-03-25T08:41:16;99981.41;;;8.63;83.40
53647;BME280;39550;52.230;5.194;2023-03-25T08:43:42;99983.97;;;8.66;83.46
53647;BME280;39550;52.230;5.194;2023-03-25T08:46:07;99993.41;;;8.68;83.42
53647;BME280;39550;52.230;5.194;2023-03-25T08:48:33;99980.56;;;8.67;83.64
53647;BME280;39550;52.230;5.194;2023-03-25T08:50:58;100000.22;;;8.68;83.49
53647;BME280;39550;52.230;5.194;2023-03-25T08:53:25;99991.72;;;8.75;82.85
53647;BME280;39550;52.230;5.194;2023-03-25T08:55:54;99989.13;;;8.81;83.25
53647;BME280;39550;52.230;5.194;2023-03-25T08:58:20;99996.84;;;8.84;82.61
53647;BME280;39550;52.230;5.194;2023-03-25T09:00:47;99987.41;;;8.79;83.35
53647;BME280;39550;52.230;5.194;2023-03-25T09:03:13;99989.13;;;8.77;83.33
53647;BME280;39550;52.230;5.194;2023-03-25T09:05:38;99996.84;;;8.75;83.12
53647;BME280;39550;52.230;5.194;2023-03-25T09:08:04;99992.56;;;8.79;82.91
53647;BME280;39550;52.230;5.194;2023-03-25T09:10:30;99991.69;;;8.81;83.19
53647;BME280;39550;52.230;5.194;2023-03-25T09:12:56;100011.41;;;8.79;82.66
53647;BME280;39550;52.230;5.194;2023-03-25T09:15:21;99995.13;;;8.77;83.01
53647;BME280;39550;52.230;5.194;2023-03-25T09:17:47;100003.69;;;8.78;82.83
53647;BME280;39550;52.230;5.194;2023-03-25T09:20:13;100003.69;;;8.79;83.22
53647;BME280;39550;52.230;5.194;2023-03-25T09:22:39;99989.97;;;8.80;82.96
53647;BME280;39550;52.230;5.194;2023-03-25T09:25:05;99997.69;;;8.80;82.94
53647;BME280;39550;52.230;5.194;2023-03-25T09:27:31;100009.69;;;8.83;83.02
53647;BME280;39550;52.230;5.194;2023-03-25T09:29:57;100004.56;;;8.91;82.52
53647;BME280;39550;52.230;5.194;2023-03-25T09:32:23;100003.69;;;8.87;82.28
53647;BME280;39550;52.230;5.194;2023-03-25T09:34:48;100017.38;;;8.84;82.38
53647;BME280;39550;52.230;5.194;2023-03-25T09:37:13;100012.25;;;8.84;82.45
53647;BME280;39550;52.230;5.194;2023-03-25T09:39:39;100009.69;;;8.84;82.44
53647;BME280;39550;52.230;5.194;2023-03-25T09:42:12;100016.53;;;8.85;82.84
53647;BME280;39550;52.230;5.194;2023-03-25T09:45:14;100015.69;;;8.90;81.86
53647;BME280;39550;52.230;5.194;2023-03-25T09:47:52;100017.41;;;8.91;82.24
53647;BME280;39550;52.230;5.194;2023-03-25T09:50:19;100019.09;;;8.89;82.55
53647;BME280;39550;52.230;5.194;2023-03-25T09:55:25;100020.81;;;8.80;82.84
53647;BME280;39550;52.230;5.194;2023-03-25T09:57:55;100034.53;;;8.89;82.26
53647;BME280;39550;52.230;5.194;2023-03-25T10:00:24;100023.41;;;8.90;82.12
53647;BME280;39550;52.230;5.194;2023-03-25T10:02:59;100032.81;;;8.94;81.54
53647;BME280;39550;52.230;5.194;2023-03-25T10:05:37;100042.25;;;9.01;81.29
53647;BME280;39550;52.230;5.194;2023-03-25T10:08:12;100044.81;;;8.98;81.86
53647;BME280;39550;52.230;5.194;2023-03-25T10:13:23;100046.56;;;8.96;82.05
53647;BME280;39550;52.230;5.194;2023-03-25T10:18:44;100043.13;;;9.00;81.81
53647;BME280;39550;52.230;5.194;2023-03-25T10:26:46;100049.97;;;8.99;81.60
53647;BME280;39550;52.230;5.194;2023-03-25T10:29:18;100043.09;;;8.97;81.47
53647;BME280;39550;52.230;5.194;2023-03-25T10:31:55;100043.97;;;8.96;81.71
53647;BME280;39550;52.230;5.194;2023-03-25T10:34:28;100054.22;;;8.94;81.89
53647;BME280;39550;52.230;5.194;2023-03-25T10:36:59;100067.09;;;8.96;81.66
53647;BME280;39550;52.230;5.194;2023-03-25T10:39:31;100058.53;;;8.94;81.77
53647;BME280;39550;52.230;5.194;2023-03-25T10:42:00;100068.81;;;8.91;81.73
53647;BME280;39550;52.230;5.194;2023-03-25T10:44:27;100065.38;;;8.95;81.34
53647;BME280;39550;52.230;5.194;2023-03-25T10:47:02;100055.09;;;8.98;81.65
53647;BME280;39550;52.230;5.194;2023-03-25T10:49:30;100060.25;;;9.04;81.47
53647;BME280;39550;52.230;5.194;2023-03-25T10:51:57;100053.41;;;9.06;80.38
53647;BME280;39550;52.230;5.194;2023-03-25T10:54:29;100061.97;;;9.17;78.40
53647;BME280;39550;52.230;5.194;2023-03-25T10:56:58;100064.56;;;9.30;78.09
53647;BME280;39550;52.230;5.194;2023-03-25T11:02:21;100048.28;;;9.28;78.70
53647;BME280;39550;52.230;5.194;2023-03-25T11:04:51;100068.84;;;9.22;78.88
53647;BME280;39550;52.230;5.194;2023-03-25T11:07:21;100065.41;;;9.13;79.21
53647;BME280;39550;52.230;5.194;2023-03-25T11:09:48;100073.13;;;9.09;79.41
53647;BME280;39550;52.230;5.194;2023-03-25T11:12:20;100072.25;;;9.05;79.84
53647;BME280;39550;52.230;5.194;2023-03-25T11:14:54;100074.84;;;9.19;79.80
53647;BME280;39550;52.230;5.194;2023-03-25T11:17:20;100073.13;;;9.24;79.25
53647;BME280;39550;52.230;5.194;2023-03-25T11:19:55;100066.28;;;9.28;79.32
53647;BME280;39550;52.230;5.194;2023-03-25T11:22:24;100067.97;;;9.27;79.27
53647;BME280;39550;52.230;5.194;2023-03-25T11:24:58;100071.44;;;9.29;79.33
53647;BME280;39550;52.230;5.194;2023-03-25T11:27:26;100082.56;;;9.33;79.07
53647;BME280;39550;52.230;5.194;2023-03-25T11:29:56;100081.72;;;9.31;79.75
53647;BME280;39550;52.230;5.194;2023-03-25T11:32:33;100074.84;;;9.25;80.04
53647;BME280;39550;52.230;5.194;2023-03-25T11:35:07;100073.13;;;9.23;80.01
53647;BME280;39550;52.230;5.194;2023-03-25T11:37:46;100073.97;;;9.22;80.03
53647;BME280;39550;52.230;5.194;2023-03-25T11:40:16;100095.41;;;9.20;79.76
53647;BME280;39550;52.230;5.194;2023-03-25T11:42:51;100101.41;;;9.26;79.86
53647;BME280;39550;52.230;5.194;2023-03-25T11:45:26;100084.25;;;9.26;79.64
53647;BME280;39550;52.230;5.194;2023-03-25T11:47:57;100082.56;;;9.27;79.92
53647;BME280;39550;52.230;5.194;2023-03-25T11:50:28;100085.97;;;9.26;79.39
53647;BME280;39550;52.230;5.194;2023-03-25T11:52:56;100082.53;;;9.20;80.08
53647;BME280;39550;52.230;5.194;2023-03-25T11:55:24;100091.09;;;9.13;79.98
53647;BME280;39550;52.230;5.194;2023-03-25T11:57:53;100085.13;;;9.17;80.13
53647;BME280;39550;52.230;5.194;2023-03-25T12:03:24;100087.69;;;9.14;80.38
53647;BME280;39550;52.230;5.194;2023-03-25T12:06:05;100093.69;;;9.19;80.10
53647;BME280;39550;52.230;5.194;2023-03-25T12:08:49;100094.53;;;9.25;79.69
53647;BME280;39550;52.230;5.194;2023-03-25T12:11:27;100074.00;;;9.28;79.58
53647;BME280;39550;52.230;5.194;2023-03-25T12:16:43;100080.88;;;9.44;79.37
53647;BME280;39550;52.230;5.194;2023-03-25T12:30:24;100091.13;;;9.29;79.58
53647;BME280;39550;52.230;5.194;2023-03-25T12:38:19;100074.00;;;9.54;77.95
53647;BME280;39550;52.230;5.194;2023-03-25T12:41:10;100089.41;;;9.52;77.09
53647;BME280;39550;52.230;5.194;2023-03-25T12:43:58;100068.84;;;9.65;77.37
53647;BME280;39550;52.230;5.194;2023-03-25T12:46:34;100061.97;;;9.90;76.62
53647;BME280;39550;52.230;5.194;2023-03-25T12:49:26;100073.09;;;9.98;76.14
53647;BME280;39550;52.230;5.194;2023-03-25T12:52:19;100073.09;;;9.95;76.34
53647;BME280;39550;52.230;5.194;2023-03-25T13:03:09;100075.66;;;10.03;76.07
53647;BME280;39550;52.230;5.194;2023-03-25T13:05:51;100079.94;;;10.09;75.79
53647;BME280;39550;52.230;5.194;2023-03-25T13:08:31;100080.72;;;10.34;75.25
53647;BME280;39550;52.230;5.194;2023-03-25T13:11:16;100092.78;;;10.19;75.56
53647;BME280;39550;52.230;5.194;2023-03-25T13:13:44;100091.97;;;9.93;76.39
53647;BME280;39550;52.230;5.194;2023-03-25T13:16:17;100094.50;;;10.14;76.03
53647;BME280;39550;52.230;5.194;2023-03-25T13:21:29;100109.00;;;10.57;74.04
53647;BME280;39550;52.230;5.194;2023-03-25T13:24:04;100085.91;;;10.25;75.21
53647;BME280;39550;52.230;5.194;2023-03-25T13:26:31;100106.53;;;10.15;75.63
53647;BME280;39550;52.230;5.194;2023-03-25T13:29:02;100108.28;;;9.88;76.61
53647;BME280;39550;52.230;5.194;2023-03-25T13:31:35;100104.88;;;9.71;77.43
53647;BME280;39550;52.230;5.194;2023-03-25T13:34:27;100124.56;;;9.57;77.52
53647;BME280;39550;52.230;5.194;2023-03-25T13:37:14;100136.56;;;9.45;78.72
53647;BME280;39550;52.230;5.194;2023-03-25T13:40:02;100128.88;;;9.39;79.01
53647;BME280;39550;52.230;5.194;2023-03-25T13:42:45;100123.72;;;9.39;78.90
53647;BME280;39550;52.230;5.194;2023-03-25T13:45:17;100123.72;;;9.39;78.50
53647;BME280;39550;52.230;5.194;2023-03-25T13:47:43;100120.28;;;9.43;78.53
53647;BME280;39550;52.230;5.194;2023-03-25T13:50:30;100108.28;;;9.48;77.79
53647;BME280;39550;52.230;5.194;2023-03-25T13:53:07;100108.84;;;10.88;73.30
53647;BME280;39550;52.230;5.194;2023-03-25T13:55:40;100112.88;;;11.32;71.69
53647;BME280;39550;52.230;5.194;2023-03-25T14:03:46;100139.13;;;10.16;75.01
53647;BME280;39550;52.230;5.194;2023-03-25T14:14:36;100146.31;;;11.49;68.81
53647;BME280;39550;52.230;5.194;2023-03-25T14:17:04;100139.25;;;11.70;68.22
53647;BME280;39550;52.230;5.194;2023-03-25T14:19:37;100138.69;;;11.29;70.19
53647;BME280;39550;52.230;5.194;2023-03-25T14:22:13;100152.53;;;11.17;70.26
53647;BME280;39550;52.230;5.194;2023-03-25T14:24:40;100148.50;;;10.54;73.14
53647;BME280;39550;52.230;5.194;2023-03-25T14:27:17;100148.53;;;10.41;73.52
53647;BME280;39550;52.230;5.194;2023-03-25T14:29:54;100151.16;;;10.08;74.86
53647;BME280;39550;52.230;5.194;2023-03-25T14:34:47;100157.16;;;9.75;76.60
53647;BME280;39550;52.230;5.194;2023-03-25T14:39:50;100164.91;;;9.64;77.48
53647;BME280;39550;52.230;5.194;2023-03-25T14:42:24;100168.31;;;9.60;77.63
53647;BME280;39550;52.230;5.194;2023-03-25T14:44:52;100175.16;;;9.54;77.83
53647;BME280;39550;52.230;5.194;2023-03-25T14:47:30;100176.03;;;9.50;77.89
53647;BME280;39550;52.230;5.194;2023-03-25T14:50:05;100180.28;;;9.45;78.93
53647;BME280;39550;52.230;5.194;2023-03-25T14:52:50;100183.72;;;9.41;78.88
53647;BME280;39550;52.230;5.194;2023-03-25T14:55:40;100181.13;;;9.38;79.53
53647;BME280;39550;52.230;5.194;2023-03-25T14:58:19;100175.13;;;9.33;79.42
53647;BME280;39550;52.230;5.194;2023-03-25T15:00:59;100170.84;;;9.35;79.62
53647;BME280;39550;52.230;5.194;2023-03-25T15:03:34;100182.84;;;9.31;79.89
53647;BME280;39550;52.230;5.194;2023-03-25T15:06:02;100244.53;;;9.30;79.61
53647;BME280;39550;52.230;5.194;2023-03-25T15:22:18;100274.44;;;9.03;82.14
53647;BME280;39550;52.230;5.194;2023-03-25T15:24:48;100286.41;;;9.01;82.35